Time;durP1;ratioP1;P1;durP2;ratioP2;P2;SDS_P1;SDS_P2;PMS_P1;PMS_P2;Temp;Humidity;BMP_temperature;BMP_pressure;BME280_temperature;BME280_humidity;BME280_pressure;Samples;Min_cycle;Max_cycle;Signal;HPM_P1;HPM_P2
2022/04/25 00:00:50;;;;;;;18.02;9.48;;;;;;;7.62;92.94;101178.31;4971156;28;20053;-72
2022/04/25 00:03:19;;;;;;;19.10;10.50;;;;;;;7.58;93.01;101173.84;4974568;28;20059;-72
2022/04/25 00:05:48;;;;;;;17.73;9.18;;;;;;;7.57;92.92;101179.91;4971043;28;20322;-74
2022/04/25 00:08:19;;;;;;;20.67;10.30;;;;;;;7.57;93.10;101175.56;4974292;28;20046;-73
2022/04/25 00:10:50;;;;;;;18.60;9.80;;;;;;;7.54;92.92;101172.88;4976409;28;20046;-72
2022/04/25 00:13:22;;;;;;;19.27;10.52;;;;;;;7.53;92.69;101176.31;4977995;28;20050;-73
2022/04/25 00:15:52;;;;;;;17.77;9.90;;;;;;;7.52;92.83;101179.75;4973567;28;20057;-72
2022/04/25 00:18:20;;;;;;;22.10;9.20;;;;;;;7.52;92.60;101177.16;4976631;28;21430;-72
2022/04/25 00:20:55;;;;;;;21.67;9.07;;;;;;;7.56;92.50;101176.41;4975410;28;20062;-72
2022/04/25 00:23:24;;;;;;;22.35;10.85;;;;;;;7.52;92.38;101180.66;4968104;28;20097;-73
2022/04/25 00:25:58;;;;;;;21.40;9.45;;;;;;;7.53;92.35;101176.31;4971588;28;20058;-73
2022/04/25 00:28:26;;;;;;;24.42;11.07;;;;;;;7.52;92.26;101178.03;4977365;28;20043;-72
2022/04/25 00:30:57;;;;;;;19.38;10.43;;;;;;;7.49;92.79;101177.94;4974935;28;20072;-73
2022/04/25 00:33:26;;;;;;;22.85;9.73;;;;;;;7.44;92.81;101176.91;4972701;28;20059;-72
2022/04/25 00:35:57;;;;;;;18.92;9.73;;;;;;;7.52;92.65;101180.66;4970190;28;20061;-72
2022/04/25 00:38:27;;;;;;;21.67;10.40;;;;;;;7.48;92.63;101180.50;4966780;28;20190;-72
2022/04/25 00:40:57;;;;;;;17.95;10.40;;;;;;;7.52;92.75;101175.44;4966412;28;20054;-73
2022/04/25 00:43:27;;;;;;;18.20;10.68;;;;;;;7.54;92.32;101185.91;4968186;28;20054;-72
2022/04/25 00:45:56;;;;;;;20.50;10.52;;;;;;;7.49;92.77;101180.56;4968116;28;20108;-72
2022/04/25 00:48:25;;;;;;;22.58;10.25;;;;;;;7.47;92.75;101178.72;4965531;28;20058;-72
2022/04/25 00:50:53;;;;;;;22.95;10.55;;;;;;;7.41;92.99;101171.59;4967561;28;20165;-72
2022/04/25 00:53:27;;;;;;;23.27;10.27;;;;;;;7.39;93.02;101178.50;4968491;28;20517;-72
2022/04/25 00:55:55;;;;;;;27.83;11.52;;;;;;;7.37;93.36;101172.34;4969003;28;20105;-72
2022/04/25 00:58:23;;;;;;;24.02;11.07;;;;;;;7.36;93.40;101173.19;4968900;28;20086;-73
2022/04/25 01:00:57;;;;;;;27.83;10.77;;;;;;;7.30;93.79;101172.97;4968012;28;20125;-73
2022/04/25 01:03:28;;;;;;;20.75;10.48;;;;;;;7.30;93.77;101170.38;4966344;28;20117;-72
2022/04/25 01:05:59;;;;;;;20.13;9.50;;;;;;;7.25;94.06;101174.59;4965463;28;20185;-72
2022/04/25 01:08:27;;;;;;;20.15;10.35;;;;;;;7.21;94.50;101164.91;4969636;28;20136;-72
2022/04/25 01:10:59;;;;;;;19.38;9.85;;;;;;;7.20;94.76;101168.34;4968293;28;20257;-73
2022/04/25 01:13:27;;;;;;;19.85;10.82;;;;;;;7.20;94.58;101170.94;4967986;28;20058;-73
2022/04/25 01:15:59;;;;;;;20.92;10.23;;;;;;;7.24;94.50;101170.22;4967270;28;20070;-73
2022/04/25 01:18:27;;;;;;;19.92;10.65;;;;;;;7.23;94.22;101168.44;4965965;28;20054;-73
2022/04/25 01:20:58;;;;;;;23.83;11.57;;;;;;;7.25;94.19;101169.38;4968143;28;20201;-73
2022/04/25 01:29:10;;;;;;;26.70;11.85;;;;;;;7.21;94.13;101167.50;4971634;28;20066;-73
2022/04/25 01:31:38;;;;;;;21.88;10.93;;;;;;;7.19;94.62;101171.78;4967619;28;20117;-72
2022/04/25 01:34:09;;;;;;;23.65;12.10;;;;;;;7.21;94.36;101164.91;4970617;28;20145;-73
2022/04/25 01:36:40;;;;;;;25.20;12.68;;;;;;;7.20;94.37;101160.50;4968093;28;20050;-71
2022/04/25 01:39:10;;;;;;;23.13;11.43;;;;;;;7.17;94.52;101168.25;4968557;28;20062;-72
2022/04/25 01:41:37;;;;;;;27.33;12.77;;;;;;;7.17;94.28;101163.03;4968030;28;20106;-72
2022/04/25 01:44:06;;;;;;;29.50;12.35;;;;;;;7.16;94.60;101166.47;4968297;28;20070;-71
2022/04/25 01:46:35;;;;;;;23.95;12.00;;;;;;;7.12;94.77;101160.28;4968376;28;20097;-73
2022/04/25 01:49:03;;;;;;;30.25;12.82;;;;;;;7.14;94.73;101160.31;4969108;28;20937;-73
2022/04/25 01:51:32;;;;;;;27.55;12.07;;;;;;;7.16;94.21;101156.03;4970441;28;20054;-71
2022/04/25 01:54:00;;;;;;;23.67;11.82;;;;;;;7.15;94.33;101160.38;4966134;28;20146;-73
2022/04/25 01:56:29;;;;;;;23.00;11.15;;;;;;;7.18;94.09;101164.78;4970573;28;20090;-72
2022/04/25 01:58:59;;;;;;;31.95;12.43;;;;;;;7.12;94.14;101162.00;4969831;28;20061;-72
2022/04/25 02:01:30;;;;;;;24.95;11.23;;;;;;;7.10;94.10;101172.38;4969122;28;20106;-71
2022/04/25 02:03:58;;;;;;;26.73;12.27;;;;;;;7.10;94.16;101161.06;4964707;28;20062;-73
2022/04/25 02:06:29;;;;;;;27.13;12.93;;;;;;;7.11;94.06;101162.81;4965848;28;20057;-73
2022/04/25 02:09:01;;;;;;;25.85;12.88;;;;;;;7.12;93.67;101162.00;4966763;28;20059;-72
2022/04/25 02:11:31;;;;;;;24.65;12.02;;;;;;;7.14;93.68;101162.94;4966939;28;20128;-72
2022/04/25 02:13:59;;;;;;;25.13;11.88;;;;;;;7.13;93.67;101162.03;4968250;28;20567;-72
2022/04/25 02:16:28;;;;;;;25.98;12.32;;;;;;;7.17;93.22;101163.91;4967158;28;20061;-72
2022/04/25 02:18:59;;;;;;;35.22;12.13;;;;;;;7.17;93.15;101156.09;4966071;28;20058;-72
2022/04/25 02:21:27;;;;;;;30.25;13.18;;;;;;;7.17;92.74;101163.03;4970808;28;20101;-73
2022/04/25 02:23:58;;;;;;;25.23;11.15;;;;;;;7.15;92.77;101157.75;4972287;28;20047;-72
2022/04/25 02:26:31;;;;;;;25.95;11.63;;;;;;;7.15;92.79;101155.16;4969944;28;20043;-72
2022/04/25 02:28:59;;;;;;;22.70;10.93;;;;;;;7.18;92.48;101149.16;4974891;28;20157;-72
2022/04/25 02:31:28;;;;;;;27.48;12.43;;;;;;;7.21;92.55;101152.75;4971575;28;20527;-74
2022/04/25 02:33:57;;;;;;;27.65;11.70;;;;;;;7.21;92.38;101151.84;4970858;28;20905;-73
2022/04/25 02:36:28;;;;;;;26.55;11.38;;;;;;;7.24;92.18;101151.94;4972075;28;20866;-73
2022/04/25 02:38:59;;;;;;;26.08;12.02;;;;;;;7.27;92.15;101144.22;4967001;28;20588;-73
2022/04/25 02:41:28;;;;;;;25.80;11.18;;;;;;;7.36;91.67;101146.19;4970171;28;20072;-74
2022/04/25 02:43:58;;;;;;;26.83;11.80;;;;;;;7.40;91.66;101145.47;4971809;28;20070;-72
2022/04/25 02:46:27;;;;;;;26.88;12.02;;;;;;;7.44;91.87;101153.44;4968564;28;20057;-74
2022/04/25 02:48:58;;;;;;;28.75;12.25;;;;;;;7.54;91.56;101149.38;4967887;28;20058;-74
2022/04/25 02:51:27;;;;;;;28.95;11.18;;;;;;;7.59;91.67;101146.91;4972167;28;20057;-73
2022/04/25 02:53:58;;;;;;;28.05;10.55;;;;;;;7.61;91.45;101150.44;4972437;28;20153;-73
2022/04/25 02:56:29;;;;;;;25.58;10.90;;;;;;;7.61;91.63;101146.09;4971677;28;20252;-73
2022/04/25 02:59:02;;;;;;;27.70;11.73;;;;;;;7.67;91.46;101146.28;4973646;28;20523;-73
2022/04/25 03:01:30;;;;;;;24.08;11.00;;;;;;;7.68;91.71;101141.97;4974057;28;20100;-74
2022/04/25 03:03:59;;;;;;;31.58;12.00;;;;;;;7.65;92.01;101139.25;4973016;28;20050;-73
2022/04/25 03:06:28;;;;;;;27.77;11.27;;;;;;;7.65;92.11;101152.31;4972568;28;20455;-74
2022/04/25 03:08:59;;;;;;;25.17;11.50;;;;;;;7.65;92.22;101147.09;4972590;28;20141;-74
2022/04/25 03:11:28;;;;;;;25.25;11.73;;;;;;;7.63;92.15;101140.94;4973032;28;20046;-73
2022/04/25 03:14:02;;;;;;;28.88;11.48;;;;;;;7.62;92.47;101136.56;4976075;28;20073;-73
2022/04/25 03:16:30;;;;;;;34.05;11.43;;;;;;;7.57;92.73;101143.34;4974361;28;20058;-74
2022/04/25 03:18:59;;;;;;;32.33;10.95;;;;;;;7.58;92.86;101148.63;4976266;28;20046;-73
2022/04/25 03:21:28;;;;;;;28.63;12.70;;;;;;;7.61;92.69;101140.00;4978078;28;20137;-74
2022/04/25 03:24:00;;;;;;;34.70;11.45;;;;;;;7.66;92.80;101135.81;4976171;28;20047;-74
2022/04/25 03:26:29;;;;;;;30.17;10.70;;;;;;;7.64;93.13;101147.94;4975049;28;20042;-74
2022/04/25 03:28:58;;;;;;;29.38;11.32;;;;;;;7.59;92.94;101146.91;4977217;28;20058;-73
2022/04/25 03:31:30;;;;;;;33.17;12.63;;;;;;;7.62;92.87;101131.34;4980411;28;20038;-73
2022/04/25 03:33:58;;;;;;;38.83;12.52;;;;;;;7.66;93.15;101135.81;4977318;28;20139;-73
2022/04/25 03:36:31;;;;;;;32.42;11.63;;;;;;;7.63;93.09;101140.94;4979691;28;20115;-71
2022/04/25 03:38:59;;;;;;;31.75;12.90;;;;;;;7.59;93.38;101141.69;4972769;28;20056;-72
2022/04/25 03:41:31;;;;;;;26.25;11.57;;;;;;;7.65;93.23;101139.25;4977029;28;20046;-72
2022/04/25 03:43:59;;;;;;;31.05;12.10;;;;;;;7.55;93.22;101140.69;4975001;28;20117;-72
2022/04/25 03:46:32;;;;;;;31.25;12.50;;;;;;;7.51;93.65;101146.66;4973014;28;20062;-73
2022/04/25 03:49:00;;;;;;;27.90;11.45;;;;;;;7.53;93.99;101147.59;4967254;28;20129;-74
2022/04/25 03:51:29;;;;;;;28.45;12.15;;;;;;;7.51;94.10;101147.56;4972839;28;20049;-73
2022/04/25 03:54:00;;;;;;;32.67;12.38;;;;;;;7.45;94.71;101146.47;4970164;28;20173;-74
2022/04/25 03:59:19;;;;;;;33.63;12.38;;;;;;;7.39;94.69;101148.91;4971066;28;20065;-73
2022/04/25 04:01:51;;;;;;;28.27;11.63;;;;;;;7.33;95.01;101143.50;4967453;28;20562;-73
2022/04/25 04:04:22;;;;;;;27.45;11.45;;;;;;;7.28;95.65;101143.34;4968922;28;20136;-74
2022/04/25 04:06:53;;;;;;;28.05;11.05;;;;;;;7.23;96.22;101137.13;4969655;28;20216;-73
2022/04/25 04:12:10;;;;;;;28.00;11.75;;;;;;;7.25;96.61;101140.69;4971539;28;20050;-72
2022/04/25 04:14:38;;;;;;;34.88;13.73;;;;;;;7.24;96.54;101138.91;4966787;28;20297;-72
2022/04/25 04:17:08;;;;;;;32.85;13.05;;;;;;;7.29;96.72;101142.50;4971300;28;20050;-73
2022/04/25 04:19:37;;;;;;;39.55;14.38;;;;;;;7.30;97.69;101153.84;4971653;28;20046;-72
2022/04/25 04:22:07;;;;;;;38.45;14.55;;;;;;;7.31;98.23;101151.28;4973972;28;20144;-73
2022/04/25 04:24:36;;;;;;;38.22;14.98;;;;;;;7.31;98.49;101156.50;4973392;28;20065;-71
2022/04/25 04:27:07;;;;;;;38.33;13.13;;;;;;;7.36;98.43;101152.31;4971962;28;20093;-73
2022/04/25 04:29:36;;;;;;;35.03;13.50;;;;;;;7.37;98.60;101148.84;4971569;28;20054;-72
2022/04/25 04:32:06;;;;;;;31.27;13.38;;;;;;;7.38;99.92;101153.22;4968877;28;20061;-72
2022/04/25 04:34:37;;;;;;;35.58;14.65;;;;;;;7.47;100.00;101161.34;4965220;28;20046;-72
2022/04/25 04:37:07;;;;;;;41.42;13.95;;;;;;;7.46;100.00;101161.31;4967720;28;20520;-72
2022/04/25 04:39:35;;;;;;;43.22;15.02;;;;;;;7.47;100.00;101160.47;4971796;28;20050;-72
2022/04/25 04:42:04;;;;;;;37.90;14.65;;;;;;;7.49;100.00;101167.50;4969939;28;20059;-73
2022/04/25 04:44:36;;;;;;;38.22;14.30;;;;;;;7.49;100.00;101175.31;4970268;28;20227;-73
2022/04/25 04:47:05;;;;;;;31.60;14.18;;;;;;;7.53;100.00;101169.38;4967188;28;20058;-74
2022/04/25 04:49:34;;;;;;;37.55;17.60;;;;;;;7.62;100.00;101173.97;4967296;28;20046;-75
2022/04/25 04:52:04;;;;;;;38.95;16.25;;;;;;;7.57;100.00;101175.56;4968176;28;20082;-74
2022/04/25 04:54:32;;;;;;;52.55;17.95;;;;;;;7.54;100.00;101176.34;4970242;28;20177;-74
2022/04/25 04:57:01;;;;;;;42.55;16.08;;;;;;;7.59;100.00;101178.22;4967070;28;20050;-73
2022/04/25 04:59:30;;;;;;;40.63;15.32;;;;;;;7.64;100.00;101181.84;4966784;28;20145;-73
2022/04/25 05:01:58;;;;;;;36.65;15.65;;;;;;;7.66;100.00;101190.63;4969693;28;20050;-72
2022/04/25 05:04:29;;;;;;;35.20;14.05;;;;;;;7.69;100.00;101185.50;4968064;28;20554;-74
2022/04/25 05:06:58;;;;;;;39.28;15.38;;;;;;;7.74;100.00;101183.91;4967726;28;20538;-73
2022/04/25 05:09:30;;;;;;;35.08;14.52;;;;;;;7.85;100.00;101187.72;4967838;28;20109;-74
2022/04/25 05:11:59;;;;;;;35.47;13.45;;;;;;;7.84;100.00;101197.28;4971608;28;20073;-74
2022/04/25 05:14:28;;;;;;;30.23;13.82;;;;;;;7.90;100.00;101188.75;4967132;28;20109;-73
2022/04/25 05:16:59;;;;;;;33.30;12.88;;;;;;;8.00;100.00;101193.41;4970930;28;20303;-73
2022/04/25 05:19:28;;;;;;;29.98;14.15;;;;;;;7.98;100.00;101196.81;4969198;28;20588;-72
2022/04/25 05:21:59;;;;;;;33.13;13.70;;;;;;;7.95;100.00;101195.00;4969620;28;20059;-73
2022/04/25 05:24:28;;;;;;;28.70;14.15;;;;;;;8.00;100.00;101201.25;4972806;28;20165;-74
2022/04/25 05:27:01;;;;;;;39.63;14.82;;;;;;;8.07;100.00;101208.41;4969485;28;20144;-72
2022/04/25 05:29:29;;;;;;;32.45;14.10;;;;;;;8.07;100.00;101207.53;4973210;28;20062;-73
2022/04/25 05:31:58;;;;;;;29.42;14.50;;;;;;;8.16;100.00;101206.06;4970459;28;20062;-73
2022/04/25 05:34:37;;;;;;;32.97;15.50;;;;;;;8.13;100.00;101203.38;4966100;28;20078;-73
2022/04/25 05:37:09;;;;;;;30.20;13.10;;;;;;;8.08;100.00;101202.34;4971329;28;20065;-73
2022/04/25 05:39:37;;;;;;;31.60;15.40;;;;;;;8.12;100.00;101206.81;4967106;28;20077;-73
2022/04/25 05:42:08;;;;;;;35.15;14.88;;;;;;;8.12;100.00;101217.28;4970469;28;21404;-73
2022/04/25 05:44:36;;;;;;;30.92;14.55;;;;;;;8.12;100.00;101219.00;4971103;28;20094;-74
2022/04/25 05:53:27;;;;;;;34.17;14.45;;;;;;;8.14;100.00;101228.66;4963172;28;20066;-72
2022/04/25 05:55:58;;;;;;;34.75;15.98;;;;;;;8.16;100.00;101234.81;4971614;28;20062;-73
2022/04/25 05:58:28;;;;;;;33.20;14.40;;;;;;;8.20;100.00;101238.41;4973722;28;20062;-72
2022/04/25 06:00:59;;;;;;;27.58;14.50;;;;;;;8.26;100.00;101237.69;4975544;28;20242;-73
2022/04/25 06:03:30;;;;;;;28.23;13.82;;;;;;;8.34;100.00;101237.06;4972612;28;20049;-73
2022/04/25 06:05:58;;;;;;;29.10;14.30;;;;;;;8.36;100.00;101237.13;4977004;28;20058;-74
2022/04/25 06:08:29;;;;;;;28.90;14.55;;;;;;;8.38;100.00;101243.28;4978264;28;20182;-73
2022/04/25 06:11:00;;;;;;;29.50;14.13;;;;;;;8.38;100.00;101238.94;4976974;28;20090;-73
2022/04/25 06:13:30;;;;;;;26.58;14.70;;;;;;;8.39;100.00;101245.03;4974995;28;20061;-73
2022/04/25 06:15:58;;;;;;;32.17;13.00;;;;;;;8.33;100.00;101248.38;4972835;28;20158;-72
2022/04/25 06:18:27;;;;;;;26.70;13.68;;;;;;;8.36;100.00;101252.78;4978311;28;20218;-72
2022/04/25 06:20:59;;;;;;;26.55;13.68;;;;;;;8.43;100.00;101253.00;4976560;28;20113;-72
2022/04/25 06:23:31;;;;;;;31.42;14.18;;;;;;;8.44;100.00;101253.91;4974739;28;20050;-72
2022/04/25 06:25:59;;;;;;;28.65;14.02;;;;;;;8.48;100.00;101256.66;4973817;28;20137;-71
2022/04/25 06:28:29;;;;;;;31.40;14.57;;;;;;;8.49;100.00;101257.53;4976483;28;20050;-74
2022/04/25 06:30:58;;;;;;;26.50;14.43;;;;;;;8.47;100.00;101256.59;4974821;28;20038;-71
2022/04/25 06:33:27;;;;;;;28.92;13.45;;;;;;;8.49;100.00;101258.41;4973188;28;20132;-72
2022/04/25 06:35:55;;;;;;;29.85;15.20;;;;;;;8.55;100.00;101260.31;4979741;28;20526;-72
2022/04/25 06:38:24;;;;;;;31.45;15.63;;;;;;;8.50;100.00;101254.06;4975233;28;20039;-71
2022/04/25 06:40:56;;;;;;;27.60;14.30;;;;;;;8.50;100.00;101259.31;4977617;28;20055;-72
2022/04/25 06:43:24;;;;;;;23.95;13.45;;;;;;;8.55;100.00;101262.03;4971021;28;20242;-72
2022/04/25 06:45:54;;;;;;;26.80;14.27;;;;;;;8.58;100.00;101263.03;4972592;28;20047;-72
2022/04/25 06:48:28;;;;;;;29.30;15.00;;;;;;;8.53;100.00;101267.22;4976278;28;20070;-72
2022/04/25 06:51:00;;;;;;;29.85;14.80;;;;;;;8.59;100.00;101262.19;4985295;28;20203;-72
2022/04/25 06:53:29;;;;;;;29.83;15.52;;;;;;;8.63;100.00;101264.03;4986389;28;20104;-72
2022/04/25 06:55:58;;;;;;;29.23;14.27;;;;;;;8.63;100.00;101274.50;4987336;28;20189;-74
2022/04/25 06:58:28;;;;;;;27.80;13.65;;;;;;;8.60;100.00;101274.41;4988585;28;20042;-73
2022/04/25 07:00:59;;;;;;;26.77;13.18;;;;;;;8.65;100.00;101270.19;4984619;28;20496;-72
2022/04/25 07:03:32;;;;;;;25.00;14.20;;;;;;;8.60;100.00;101277.03;4983619;28;20616;-73
2022/04/25 07:06:00;;;;;;;27.25;12.80;;;;;;;8.60;100.00;101282.25;4981974;28;20054;-73
2022/04/25 07:08:32;;;;;;;27.98;14.13;;;;;;;8.65;100.00;101282.38;4982068;28;20169;-73
2022/04/25 07:11:00;;;;;;;26.98;14.68;;;;;;;8.65;100.00;101285.88;4984312;28;20077;-72
2022/04/25 07:13:31;;;;;;;28.52;14.30;;;;;;;8.60;100.00;101284.88;4979379;28;20082;-73
2022/04/25 07:16:03;;;;;;;24.50;13.77;;;;;;;8.65;100.00;101283.25;4982487;28;20046;-73
2022/04/25 07:18:34;;;;;;;26.60;14.57;;;;;;;8.62;100.00;101287.53;4980650;28;20132;-73
2022/04/25 07:28:48;;;;;;;26.27;13.93;;;;;;;8.64;100.00;101288.44;4980425;28;20092;-74
2022/04/25 07:29:27;;;;;;;27.27;13.55;;;;;;;8.44;100.00;101300.94;4978583;28;20396;-73
2022/04/25 07:31:56;;;;;;;24.05;14.63;;;;;;;8.29;100.00;101295.28;4977226;28;20043;-73
2022/04/25 07:34:29;;;;;;;25.90;13.90;;;;;;;8.38;100.00;101301.66;4979489;28;20050;-73
2022/04/25 07:36:56;;;;;;;27.20;14.55;;;;;;;8.32;100.00;101301.44;4976667;28;20493;-73
2022/04/25 07:39:27;;;;;;;25.88;15.15;;;;;;;8.36;100.00;101302.44;4980416;28;20034;-73
2022/04/25 07:41:57;;;;;;;28.20;15.82;;;;;;;8.20;100.00;101296.75;4983478;28;20042;-73
2022/04/25 07:44:29;;;;;;;26.27;15.13;;;;;;;8.22;100.00;101309.00;4981829;28;20447;-72
2022/04/25 07:47:01;;;;;;;33.10;15.75;;;;;;;8.22;100.00;101298.53;4982525;28;20050;-72
2022/04/25 07:49:33;;;;;;;29.48;15.82;;;;;;;8.20;100.00;101296.75;4981500;28;20038;-72
2022/04/25 07:52:02;;;;;;;31.27;16.97;;;;;;;8.25;100.00;101304.75;4976769;28;20165;-73
2022/04/25 07:54:30;;;;;;;32.90;15.85;;;;;;;8.26;100.00;101305.63;4982448;28;20455;-72
2022/04/25 07:56:58;;;;;;;32.15;16.88;;;;;;;8.28;100.00;101309.19;4980646;28;20064;-73
2022/04/25 07:59:27;;;;;;;34.25;16.45;;;;;;;8.32;100.00;101305.81;4979031;28;20069;-71
2022/04/25 08:01:56;;;;;;;31.80;16.42;;;;;;;8.37;100.00;101307.72;4981827;28;20070;-72
2022/04/25 08:04:25;;;;;;;34.05;17.30;;;;;;;8.45;100.00;101315.78;4983889;28;20042;-72
2022/04/25 08:06:57;;;;;;;26.80;14.95;;;;;;;8.56;100.00;101314.38;4980537;28;20096;-71
2022/04/25 08:09:26;;;;;;;32.88;17.58;;;;;;;8.58;100.00;101311.81;4980563;28;20049;-72
2022/04/25 08:20:09;;;;;;;30.40;15.32;;;;;;;8.53;100.00;101325.63;4980437;28;20125;-72
2022/04/25 08:22:39;;;;;;;30.85;14.75;;;;;;;8.45;100.00;101329.75;4981014;28;20100;-72
2022/04/25 08:25:10;;;;;;;28.65;15.75;;;;;;;8.45;100.00;101334.09;4980649;28;20077;-72
2022/04/25 08:27:41;;;;;;;30.67;16.42;;;;;;;8.48;100.00;101340.28;4981316;28;20683;-73
2022/04/25 08:30:11;;;;;;;31.05;16.77;;;;;;;8.46;100.00;101341.97;4982135;28;20054;-73
2022/04/25 08:32:40;;;;;;;27.20;15.80;;;;;;;8.39;100.00;101337.41;4981410;28;20089;-73
2022/04/25 08:35:08;;;;;;;30.55;15.93;;;;;;;8.40;100.00;101341.78;4981088;28;20054;-73
2022/04/25 08:37:36;;;;;;;28.25;15.23;;;;;;;8.42;100.00;101345.34;4977847;28;20141;-73
2022/04/25 08:40:08;;;;;;;27.27;14.23;;;;;;;8.36;100.00;101345.16;4981260;28;20172;-73
2022/04/25 08:42:36;;;;;;;27.73;16.58;;;;;;;8.27;100.00;101357.06;4980570;28;20325;-73
2022/04/25 08:45:15;;;;;;;28.70;15.55;;;;;;;8.25;100.00;101354.38;4983429;28;20056;-73
2022/04/25 08:47:48;;;;;;;32.25;15.13;;;;;;;8.29;100.00;101358.00;4981704;28;20081;-74
2022/04/25 08:50:21;;;;;;;32.45;15.75;;;;;;;8.33;100.00;101365.06;4980472;28;20226;-72
2022/04/25 08:52:50;;;;;;;34.80;16.17;;;;;;;8.38;100.00;101361.78;4980838;28;20092;-72
2022/04/25 08:55:26;;;;;;;31.65;16.13;;;;;;;8.42;100.00;101361.03;4982162;28;20145;-72
2022/04/25 08:57:57;;;;;;;30.85;16.58;;;;;;;8.47;100.00;101363.78;4981925;28;20077;-73
2022/04/25 09:00:28;;;;;;;33.03;17.00;;;;;;;8.53;100.00;101358.72;4981050;28;20034;-73
2022/04/25 09:02:57;;;;;;;30.75;16.65;;;;;;;8.63;100.00;101359.88;4978333;28;20050;-72
2022/04/25 09:05:27;;;;;;;31.30;16.38;;;;;;;8.76;100.00;101357.69;4979749;28;20081;-72
2022/04/25 09:07:55;;;;;;;28.33;15.23;;;;;;;8.86;100.00;101356.22;4984646;28;20118;-73
2022/04/25 09:10:26;;;;;;;30.30;17.13;;;;;;;8.89;100.00;101368.50;4982747;28;20046;-72
2022/04/25 09:12:58;;;;;;;36.75;17.58;;;;;;;8.96;100.00;101365.19;4981268;28;20110;-72
2022/04/25 09:15:27;;;;;;;26.67;15.82;;;;;;;9.10;100.00;101371.72;4979728;28;20056;-72
2022/04/25 09:17:59;;;;;;;27.15;16.83;;;;;;;9.21;100.00;101369.38;4982639;28;20078;-73
2022/04/25 09:20:28;;;;;;;30.90;16.35;;;;;;;9.36;100.00;101362.78;4981710;28;20049;-72
2022/04/25 09:22:58;;;;;;;31.75;17.63;;;;;;;9.48;100.00;101365.75;4982150;28;20128;-73
2022/04/25 09:25:31;;;;;;;32.42;15.82;;;;;;;9.66;100.00;101367.06;4980793;28;20093;-72
2022/04/25 09:28:16;;;;;;;27.40;15.57;;;;;;;9.67;100.00;101368.81;4978150;28;20054;-73
2022/04/25 09:31:01;;;;;;;30.85;16.15;;;;;;;9.73;100.00;101368.97;4986553;28;20129;-72
2022/04/25 09:33:30;;;;;;;26.80;15.30;;;;;;;9.70;100.00;101379.38;4984088;28;20042;-72
2022/04/25 09:35:58;;;;;;;31.27;16.30;;;;;;;9.60;100.00;101374.75;4984996;28;20054;-72
2022/04/25 09:38:30;;;;;;;30.08;15.98;;;;;;;9.60;100.00;101378.25;4984792;28;20133;-73
2022/04/25 09:41:00;;;;;;;34.58;16.65;;;;;;;9.64;100.00;101377.50;4984686;28;20076;-72
2022/04/25 09:43:30;;;;;;;28.17;16.08;;;;;;;9.69;100.00;101378.50;4984122;28;20277;-74
2022/04/25 09:46:03;;;;;;;28.38;15.82;;;;;;;9.55;100.00;101387.72;4985370;28;20050;-72
2022/04/25 09:48:36;;;;;;;29.92;16.02;;;;;;;9.58;100.00;101386.91;4983821;28;20583;-73
2022/04/25 09:51:07;;;;;;;24.70;15.75;;;;;;;9.59;100.00;101391.31;4987656;28;20117;-72
2022/04/25 09:53:49;;;;;;;27.98;15.40;;;;;;;9.57;100.00;101400.88;4989342;28;20058;-72
2022/04/25 09:56:22;;;;;;;24.95;14.43;;;;;;;9.65;100.00;101404.56;4993041;28;20050;-72
2022/04/25 09:59:00;;;;;;;25.40;15.55;;;;;;;9.64;100.00;101410.66;4989545;28;20054;-73
2022/04/25 10:01:30;;;;;;;30.90;15.93;;;;;;;9.57;100.00;101406.09;4986272;28;20057;-73
2022/04/25 10:03:59;;;;;;;27.40;15.73;;;;;;;9.44;100.00;101408.38;4992338;28;20110;-74
2022/04/25 10:06:31;;;;;;;25.60;14.90;;;;;;;9.36;100.00;101409.91;4988413;28;20046;-73
2022/04/25 10:09:02;;;;;;;30.20;15.30;;;;;;;9.40;100.00;101409.16;4989135;28;20125;-72
2022/04/25 10:11:34;;;;;;;27.10;15.27;;;;;;;9.29;100.00;101408.00;4988809;28;20310;-72
2022/04/25 10:14:03;;;;;;;22.88;13.63;;;;;;;9.38;100.00;101420.44;4988262;28;20481;-73
2022/04/25 10:16:34;;;;;;;23.90;13.93;;;;;;;9.40;100.00;101416.13;4985929;28;20039;-72
2022/04/25 10:19:03;;;;;;;25.67;15.48;;;;;;;9.37;100.00;101411.69;4986758;28;20046;-73
2022/04/25 10:21:32;;;;;;;31.33;16.85;;;;;;;9.47;100.00;101415.44;4985104;28;20034;-73
2022/04/25 10:24:00;;;;;;;25.30;15.15;;;;;;;9.45;98.83;101410.16;4987941;28;20049;-73
2022/04/25 10:26:29;;;;;;;28.77;16.70;;;;;;;9.54;100.00;101414.75;4985259;28;20092;-72
2022/04/25 10:29:07;;;;;;;29.80;16.67;;;;;;;9.64;100.00;101423.75;4981857;28;20046;-73
2022/04/25 10:31:38;;;;;;;26.98;14.45;;;;;;;9.54;99.43;101422.63;4987152;28;20035;-73
2022/04/25 10:34:07;;;;;;;26.33;15.27;;;;;;;9.62;100.00;101423.72;4984089;28;20053;-73
2022/04/25 10:36:48;;;;;;;28.45;17.10;;;;;;;9.77;99.78;101421.50;4982216;28;20514;-73
2022/04/25 10:39:19;;;;;;;26.10;16.00;;;;;;;9.90;100.00;101425.31;4985635;28;20125;-73
2022/04/25 10:45:01;;;;;;;29.60;14.77;;;;;;;9.81;97.95;101431.19;4981615;28;20141;-72
2022/04/25 10:47:29;;;;;;;30.67;14.43;;;;;;;9.72;96.09;101424.84;4978746;28;20526;-72
2022/04/25 10:50:07;;;;;;;27.38;14.15;;;;;;;9.81;98.18;101431.19;4982765;28;20050;-72
2022/04/25 10:53:00;;;;;;;28.60;15.43;;;;;;;9.86;96.97;101439.19;4982133;28;20066;-72
2022/04/25 10:55:45;;;;;;;25.95;13.68;;;;;;;9.57;95.44;101441.03;4983339;28;20101;-72
2022/04/25 10:58:22;;;;;;;25.98;14.70;;;;;;;9.49;96.86;101442.56;4981825;28;20102;-71
2022/04/25 11:00:56;;;;;;;27.30;14.18;;;;;;;9.60;97.74;101442.84;4980463;28;20651;-69
2022/04/25 11:03:31;;;;;;;29.52;15.57;;;;;;;9.74;98.52;101446.72;4979905;28;20121;-72
2022/04/25 11:06:00;;;;;;;29.00;14.68;;;;;;;9.69;97.95;101456.19;4979316;28;20050;-72
2022/04/25 11:08:33;;;;;;;25.33;14.52;;;;;;;9.59;96.91;101455.06;4985734;28;20058;-71
2022/04/25 11:11:30;;;;;;;29.30;14.13;;;;;;;9.46;96.12;101461.69;4980759;28;20034;-70
2022/04/25 11:14:17;;;;;;;26.45;14.20;;;;;;;9.44;97.68;101457.25;4979414;28;20074;-70
2022/04/25 11:17:11;;;;;;;27.45;14.15;;;;;;;9.42;97.47;101470.28;4982066;28;20125;-73
2022/04/25 11:19:46;;;;;;;27.50;14.57;;;;;;;9.38;97.17;101472.78;4979058;28;20778;-72
2022/04/25 11:22:53;;;;;;;28.20;14.00;;;;;;;9.30;95.92;101463.88;4979758;28;20462;-72
2022/04/25 11:25:42;;;;;;;25.58;14.73;;;;;;;9.09;96.46;101471.97;4981840;28;20526;-72
2022/04/25 11:28:17;;;;;;;23.50;14.40;;;;;;;9.20;98.04;101470.56;4982018;28;20049;-71
2022/04/25 11:30:45;;;;;;;26.27;14.55;;;;;;;9.33;98.25;101467.47;4978332;28;20061;-72
2022/04/25 11:33:19;;;;;;;22.90;13.95;;;;;;;9.44;97.79;101473.84;4982006;28;20491;-72
2022/04/25 11:35:52;;;;;;;26.58;14.77;;;;;;;9.51;98.66;101469.66;4982363;28;20055;-72
2022/04/25 11:39:50;;;;;;;26.13;14.98;;;;;;;9.76;97.97;101469.47;4983460;28;20058;-72
2022/04/25 11:41:08;;;;;;;28.67;15.27;;;;;;;9.80;97.91;101466.09;4981175;28;20137;-72
2022/04/25 11:43:36;;;;;;;29.35;15.60;;;;;;;9.87;96.72;101476.75;4983640;28;20108;-71
2022/04/25 11:46:05;;;;;;;27.27;15.73;;;;;;;9.86;97.05;101473.22;4983336;28;20054;-72
2022/04/25 11:48:36;;;;;;;29.73;15.88;;;;;;;10.04;98.62;101472.81;4978635;28;20050;-71
2022/04/25 11:51:04;;;;;;;30.52;16.08;;;;;;;10.29;98.25;101477.88;4980954;28;20129;-72
2022/04/25 11:53:34;;;;;;;29.05;16.65;;;;;;;10.49;96.83;101473.06;4979621;28;20057;-72
2022/04/25 11:56:25;;;;;;;29.58;17.25;;;;;;;10.84;95.99;101465.13;4981267;28;20117;-72
2022/04/25 11:58:57;;;;;;;28.38;16.85;;;;;;;11.14;96.23;101473.66;4977224;28;20499;-72
2022/04/25 12:01:33;;;;;;;29.70;16.83;;;;;;;11.36;94.63;101478.50;4981930;28;20140;-73
2022/04/25 12:04:24;;;;;;;26.23;16.30;;;;;;;11.61;92.80;101477.22;4982449;28;20499;-73
2022/04/25 12:06:57;;;;;;;30.15;16.35;;;;;;;11.76;92.21;101484.50;4978980;28;20408;-71